sensor_id;sensor_type;location;lat;lon;timestamp;pressure;altitude;pressure_sealevel;temperature;humidity
64683;BME280;51107;47.652;19.016;2023-04-09T00:02:18;100546.66;;;2.99;100.00
64683;BME280;51107;47.652;19.016;2023-04-09T00:04:48;100547.09;;;2.91;100.00
64683;BME280;51107;47.652;19.016;2023-04-09T00:07:16;100536.72;;;2.93;100.00
64683;BME280;51107;47.652;19.016;2023-04-09T00:09:44;100544.50;;;2.91;100.00
64683;BME280;51107;47.652;19.016;2023-04-09T00:12:14;100541.69;;;2.96;100.00
64683;BME280;51107;47.652;19.016;2023-04-09T00:14:42;100550.00;;;3.01;100.00
64683;BME280;51107;47.652;19.016;2023-04-09T00:17:10;100546.44;;;3.03;100.00
64683;BME280;51107;47.652;19.016;2023-04-09T00:19:39;100546.34;;;3.05;100.00
64683;BME280;51107;47.652;19.016;2023-04-09T00:22:07;100551.41;;;3.06;100.00
64683;BME280;51107;47.652;19.016;2023-04-09T00:24:35;100545.44;;;3.06;100.00
64683;BME280;51107;47.652;19.016;2023-04-09T00:27:04;100535.22;;;3.04;100.00
64683;BME280;51107;47.652;19.016;2023-04-09T00:29:32;100542.94;;;3.04;100.00
64683;BME280;51107;47.652;19.016;2023-04-09T00:32:00;100543.84;;;3.03;100.00
64683;BME280;51107;47.652;19.016;2023-04-09T00:34:29;100548.81;;;3.06;100.00
64683;BME280;51107;47.652;19.016;2023-04-09T00:36:58;100546.25;;;3.06;100.00
64683;BME280;51107;47.652;19.016;2023-04-09T00:39:27;100544.44;;;3.09;100.00
64683;BME280;51107;47.652;19.016;2023-04-09T00:41:56;100545.25;;;3.09;100.00
64683;BME280;51107;47.652;19.016;2023-04-09T00:44:25;100540.38;;;3.04;100.00
64683;BME280;51107;47.652;19.016;2023-04-09T00:46:53;100525.06;;;3.01;100.00
64683;BME280;51107;47.652;19.016;2023-04-09T00:49:22;100535.53;;;2.98;100.00
64683;BME280;51107;47.652;19.016;2023-04-09T00:51:53;100532.88;;;3.00;100.00
64683;BME280;51107;47.652;19.016;2023-04-09T00:54:22;100544.50;;;2.91;100.00
64683;BME280;51107;47.652;19.016;2023-04-09T00:56:51;100545.16;;;2.95;100.00
64683;BME280;51107;47.652;19.016;2023-04-09T00:59:19;100541.69;;;2.96;100.00
64683;BME280;51107;47.652;19.016;2023-04-09T01:01:48;100535.72;;;2.95;100.00
64683;BME280;51107;47.652;19.016;2023-04-09T01:04:17;100535.53;;;2.98;100.00
64683;BME280;51107;47.652;19.016;2023-04-09T01:06:56;100537.03;;;3.02;100.00
64683;BME280;51107;47.652;19.016;2023-04-09T01:09:40;100527.06;;;3.12;100.00
64683;BME280;51107;47.652;19.016;2023-04-09T01:12:32;100539.22;;;3.10;100.00
64683;BME280;51107;47.652;19.016;2023-04-09T01:15:05;100521.91;;;3.12;100.00
64683;BME280;51107;47.652;19.016;2023-04-09T01:17:43;100532.88;;;3.16;100.00
64683;BME280;51107;47.652;19.016;2023-04-09T01:20:29;100533.13;;;3.11;100.00
64683;BME280;51107;47.652;19.016;2023-04-09T01:25:44;100538.94;;;2.99;100.00
64683;BME280;51107;47.652;19.016;2023-04-09T01:28:31;100526.06;;;2.99;100.00
64683;BME280;51107;47.652;19.016;2023-04-09T01:31:04;100535.53;;;2.98;100.00
64683;BME280;51107;47.652;19.016;2023-04-09T01:33:36;100533.56;;;3.03;100.00
64683;BME280;51107;47.652;19.016;2023-04-09T01:36:06;100529.56;;;3.14;100.00
64683;BME280;51107;47.652;19.016;2023-04-09T01:38:36;100531.22;;;3.15;100.00
64683;BME280;51107;47.652;19.016;2023-04-09T01:41:13;100529.47;;;3.15;100.00
64683;BME280;51107;47.652;19.016;2023-04-09T01:43:43;100538.69;;;3.19;100.00
64683;BME280;51107;47.652;19.016;2023-04-09T01:46:14;100534.56;;;3.17;100.00
64683;BME280;51107;47.652;19.016;2023-04-09T01:48:43;100534.56;;;3.17;100.00
64683;BME280;51107;47.652;19.016;2023-04-09T01:51:12;100534.63;;;3.15;100.00
64683;BME280;51107;47.652;19.016;2023-04-09T01:53:41;100539.72;;;3.17;100.00
64683;BME280;51107;47.652;19.016;2023-04-09T01:56:09;100545.00;;;3.14;100.00
64683;BME280;51107;47.652;19.016;2023-04-09T01:58:38;100540.03;;;3.11;100.00
64683;BME280;51107;47.652;19.016;2023-04-09T02:03:43;100537.22;;;2.99;100.00
64683;BME280;51107;47.652;19.016;2023-04-09T02:06:19;100542.34;;;2.99;100.00
64683;BME280;51107;47.652;19.016;2023-04-09T02:08:51;100540.62;;;2.84;100.00
64683;BME280;51107;47.652;19.016;2023-04-09T02:11:22;100530.38;;;2.82;100.00
64683;BME280;51107;47.652;19.016;2023-04-09T02:13:53;100531.87;;;2.86;100.00
64683;BME280;51107;47.652;19.016;2023-04-09T02:16:24;100528.00;;;2.95;100.00
64683;BME280;51107;47.652;19.016;2023-04-09T02:18:54;100535.53;;;2.98;100.00
64683;BME280;51107;47.652;19.016;2023-04-09T02:21:24;100539.88;;;2.98;100.00
64683;BME280;51107;47.652;19.016;2023-04-09T02:23:54;100533.72;;;3.00;100.00
64683;BME280;51107;47.652;19.016;2023-04-09T02:26:24;100535.37;;;3.01;100.00
64683;BME280;51107;47.652;19.016;2023-04-09T02:28:52;100530.22;;;3.01;100.00
64683;BME280;51107;47.652;19.016;2023-04-09T02:31:21;100519.91;;;3.01;100.00
64683;BME280;51107;47.652;19.016;2023-04-09T02:33:50;100543.19;;;3.00;100.00
64683;BME280;51107;47.652;19.016;2023-04-09T02:36:18;100535.37;;;3.01;100.00
64683;BME280;51107;47.652;19.016;2023-04-09T02:38:47;100542.94;;;3.04;100.00
64683;BME280;51107;47.652;19.016;2023-04-09T02:41:17;100532.88;;;3.00;100.00
64683;BME280;51107;47.652;19.016;2023-04-09T02:43:45;100523.25;;;3.03;100.00
64683;BME280;51107;47.652;19.016;2023-04-09T02:46:13;100528.91;;;3.10;100.00
64683;BME280;51107;47.652;19.016;2023-04-09T02:48:42;100529.63;;;3.12;100.00
64683;BME280;51107;47.652;19.016;2023-04-09T02:51:10;100522.69;;;3.14;100.00
64683;BME280;51107;47.652;19.016;2023-04-09T02:53:38;100530.41;;;3.14;100.00
64683;BME280;51107;47.652;19.016;2023-04-09T02:56:08;100525.56;;;3.08;100.00
64683;BME280;51107;47.652;19.016;2023-04-09T02:58:36;100527.56;;;3.03;100.00
64683;BME280;51107;47.652;19.016;2023-04-09T03:01:05;100516.28;;;2.89;100.00
64683;BME280;51107;47.652;19.016;2023-04-09T03:03:33;100523.16;;;2.89;100.00
64683;BME280;51107;47.652;19.016;2023-04-09T03:06:02;100525.72;;;2.89;100.00
64683;BME280;51107;47.652;19.016;2023-04-09T03:08:30;100523.75;;;2.94;100.00
64683;BME280;51107;47.652;19.016;2023-04-09T03:10:59;100528.91;;;2.94;100.00
64683;BME280;51107;47.652;19.016;2023-04-09T03:13:28;100534.12;;;2.93;100.00
64683;BME280;51107;47.652;19.016;2023-04-09T03:15:56;100531.31;;;2.97;100.00
64683;BME280;51107;47.652;19.016;2023-04-09T03:18:25;100531.31;;;2.97;100.00
64683;BME280;51107;47.652;19.016;2023-04-09T03:20:54;100520.00;;;3.00;100.00
64683;BME280;51107;47.652;19.016;2023-04-09T03:23:23;100530.12;;;3.03;100.00
64683;BME280;51107;47.652;19.016;2023-04-09T03:26:04;100532.66;;;3.04;100.00
64683;BME280;51107;47.652;19.016;2023-04-09T03:28:34;100542.28;;;3.01;100.00
64683;BME280;51107;47.652;19.016;2023-04-09T03:31:02;100521.34;;;3.07;100.00
64683;BME280;51107;47.652;19.016;2023-04-09T03:33:31;100534.06;;;3.10;100.00
64683;BME280;51107;47.652;19.016;2023-04-09T03:36:00;100530.53;;;3.11;100.00
64683;BME280;51107;47.652;19.016;2023-04-09T03:38:29;100531.41;;;3.12;100.00
64683;BME280;51107;47.652;19.016;2023-04-09T03:40:59;100539.75;;;3.15;100.00
64683;BME280;51107;47.652;19.016;2023-04-09T03:43:28;100524.25;;;3.17;100.00
64683;BME280;51107;47.652;19.016;2023-04-09T03:45:56;100531.97;;;3.17;100.00
64683;BME280;51107;47.652;19.016;2023-04-09T03:48:25;100520.75;;;3.18;100.00
64683;BME280;51107;47.652;19.016;2023-04-09T03:50:54;100519.09;;;3.17;100.00
64683;BME280;51107;47.652;19.016;2023-04-09T03:53:23;100522.59;;;3.16;100.00
64683;BME280;51107;47.652;19.016;2023-04-09T03:55:54;100539.53;;;3.20;100.00
64683;BME280;51107;47.652;19.016;2023-04-09T03:58:23;100532.97;;;3.14;100.00
64683;BME280;51107;47.652;19.016;2023-04-09T04:00:53;100544.00;;;3.16;100.00
64683;BME280;51107;47.652;19.016;2023-04-09T04:03:22;100529.47;;;3.15;100.00
64683;BME280;51107;47.652;19.016;2023-04-09T04:05:52;100534.69;;;3.14;100.00
64683;BME280;51107;47.652;19.016;2023-04-09T04:08:20;100538.84;;;3.16;100.00
64683;BME280;51107;47.652;19.016;2023-04-09T04:10:49;100549.91;;;3.18;100.00
64683;BME280;51107;47.652;19.016;2023-04-09T04:13:17;100548.56;;;3.11;100.00
64683;BME280;51107;47.652;19.016;2023-04-09T04:15:46;100547.59;;;2.98;100.00
64683;BME280;51107;47.652;19.016;2023-04-09T04:18:15;100549.00;;;3.03;100.00
64683;BME280;51107;47.652;19.016;2023-04-09T04:20:44;100553.16;;;3.06;100.00
64683;BME280;51107;47.652;19.016;2023-04-09T04:23:12;100552.16;;;3.09;100.00
64683;BME280;51107;47.652;19.016;2023-04-09T04:25:41;100547.56;;;3.14;100.00
64683;BME280;51107;47.652;19.016;2023-04-09T04:28:11;100559.94;;;3.07;100.00
64683;BME280;51107;47.652;19.016;2023-04-09T04:30:40;100546.16;;;3.08;100.00
64683;BME280;51107;47.652;19.016;2023-04-09T04:33:10;100545.16;;;3.11;100.00
64683;BME280;51107;47.652;19.016;2023-04-09T04:35:39;100554.75;;;3.09;100.00
64683;BME280;51107;47.652;19.016;2023-04-09T04:38:08;100552.91;;;3.11;100.00
64683;BME280;51107;47.652;19.016;2023-04-09T04:40:36;100553.31;;;3.03;100.00
64683;BME280;51107;47.652;19.016;2023-04-09T04:43:05;100551.31;;;3.08;100.00
64683;BME280;51107;47.652;19.016;2023-04-09T04:45:33;100548.66;;;3.10;100.00
64683;BME280;51107;47.652;19.016;2023-04-09T04:48:02;100561.38;;;3.13;100.00
64683;BME280;51107;47.652;19.016;2023-04-09T04:50:31;100561.31;;;3.14;100.00
64683;BME280;51107;47.652;19.016;2023-04-09T04:53:00;100570.09;;;3.10;100.00
64683;BME280;51107;47.652;19.016;2023-04-09T04:55:29;100563.28;;;3.09;100.00
64683;BME280;51107;47.652;19.016;2023-04-09T04:57:58;100570.91;;;3.11;100.00
64683;BME280;51107;47.652;19.016;2023-04-09T05:00:27;100572.00;;;3.06;100.00
64683;BME280;51107;47.652;19.016;2023-04-09T05:02:59;100573.56;;;3.09;100.00
64683;BME280;51107;47.652;19.016;2023-04-09T05:05:27;100556.56;;;3.06;100.00
64683;BME280;51107;47.652;19.016;2023-04-09T05:07:56;100576.06;;;3.11;100.00
64683;BME280;51107;47.652;19.016;2023-04-09T05:10:25;100567.62;;;3.09;100.00
64683;BME280;51107;47.652;19.016;2023-04-09T05:12:55;100570.25;;;3.07;100.00
64683;BME280;51107;47.652;19.016;2023-04-09T05:15:25;100578.31;;;3.17;100.00
64683;BME280;51107;47.652;19.016;2023-04-09T05:17:53;100570.66;;;3.15;100.00
64683;BME280;51107;47.652;19.016;2023-04-09T05:20:22;100576.84;;;3.13;100.00
64683;BME280;51107;47.652;19.016;2023-04-09T05:22:51;100578.97;;;3.20;100.00
64683;BME280;51107;47.652;19.016;2023-04-09T05:25:26;100570.00;;;3.28;100.00
64683;BME280;51107;47.652;19.016;2023-04-09T05:27:56;100570.00;;;3.28;100.00
64683;BME280;51107;47.652;19.016;2023-04-09T05:30:24;100569.59;;;3.35;100.00
64683;BME280;51107;47.652;19.016;2023-04-09T05:32:54;100569.41;;;3.38;100.00
64683;BME280;51107;47.652;19.016;2023-04-09T05:35:25;100571.75;;;3.43;100.00
64683;BME280;51107;47.652;19.016;2023-04-09T05:37:53;100579.72;;;3.54;100.00
64683;BME280;51107;47.652;19.016;2023-04-09T05:40:22;100577.72;;;3.60;100.00
64683;BME280;51107;47.652;19.016;2023-04-09T05:42:51;100578.53;;;3.60;100.00
64683;BME280;51107;47.652;19.016;2023-04-09T05:45:20;100585.84;;;3.68;100.00
64683;BME280;51107;47.652;19.016;2023-04-09T05:47:50;100577.84;;;3.72;100.00
64683;BME280;51107;47.652;19.016;2023-04-09T05:50:19;100586.25;;;3.76;100.00
64683;BME280;51107;47.652;19.016;2023-04-09T05:52:48;100590.47;;;3.77;100.00
64683;BME280;51107;47.652;19.016;2023-04-09T05:55:16;100584.78;;;3.86;100.00
64683;BME280;51107;47.652;19.016;2023-04-09T05:57:46;100591.25;;;3.94;100.00
64683;BME280;51107;47.652;19.016;2023-04-09T06:00:14;100594.13;;;4.03;100.00
64683;BME280;51107;47.652;19.016;2023-04-09T06:02:44;100591.31;;;4.08;100.00
64683;BME280;51107;47.652;19.016;2023-04-09T06:05:13;100606.22;;;4.17;100.00
64683;BME280;51107;47.652;19.016;2023-04-09T06:07:41;100602.22;;;4.28;100.00
64683;BME280;51107;47.652;19.016;2023-04-09T06:10:10;100601.12;;;4.01;100.00
64683;BME280;51107;47.652;19.016;2023-04-09T06:12:39;100601.34;;;4.13;100.00
64683;BME280;51107;47.652;19.016;2023-04-09T06:15:09;100591.22;;;4.24;100.00
64683;BME280;51107;47.652;19.016;2023-04-09T06:17:38;100608.09;;;4.30;100.00
64683;BME280;51107;47.652;19.016;2023-04-09T06:20:07;100609.84;;;4.29;100.00
64683;BME280;51107;47.652;19.016;2023-04-09T06:22:36;100599.25;;;4.34;100.00
64683;BME280;51107;47.652;19.016;2023-04-09T06:25:04;100601.19;;;4.45;100.00
64683;BME280;51107;47.652;19.016;2023-04-09T06:27:33;100597.19;;;4.55;100.00
64683;BME280;51107;47.652;19.016;2023-04-09T06:30:01;100604.72;;;4.58;100.00
64683;BME280;51107;47.652;19.016;2023-04-09T06:32:29;100614.31;;;4.56;100.00
64683;BME280;51107;47.652;19.016;2023-04-09T06:35:04;100606.37;;;4.45;100.00
64683;BME280;51107;47.652;19.016;2023-04-09T06:37:37;100603.44;;;4.65;100.00
64683;BME280;51107;47.652;19.016;2023-04-09T06:40:06;100599.19;;;4.64;100.00
64683;BME280;51107;47.652;19.016;2023-04-09T06:42:35;100602.31;;;4.69;100.00
64683;BME280;51107;47.652;19.016;2023-04-09T06:45:04;100608.59;;;4.80;100.00
64683;BME280;51107;47.652;19.016;2023-04-09T06:47:36;100611.47;;;4.89;100.00
64683;BME280;51107;47.652;19.016;2023-04-09T06:50:04;100607.56;;;4.97;100.00
64683;BME280;51107;47.652;19.016;2023-04-09T06:52:33;100620.19;;;5.01;100.00
64683;BME280;51107;47.652;19.016;2023-04-09T06:55:02;100618.72;;;4.97;100.00
64683;BME280;51107;47.652;19.016;2023-04-09T06:57:30;100621.97;;;5.01;100.00
64683;BME280;51107;47.652;19.016;2023-04-09T06:59:58;100617.91;;;4.97;100.00
64683;BME280;51107;47.652;19.016;2023-04-09T07:02:27;100614.88;;;5.04;100.00
64683;BME280;51107;47.652;19.016;2023-04-09T07:04:56;100619.84;;;4.93;100.00
64683;BME280;51107;47.652;19.016;2023-04-09T07:07:24;100630.16;;;5.07;100.00
64683;BME280;51107;47.652;19.016;2023-04-09T07:09:53;100622.78;;;5.16;100.00
64683;BME280;51107;47.652;19.016;2023-04-09T07:12:29;100627.56;;;5.22;100.00
64683;BME280;51107;47.652;19.016;2023-04-09T07:14:59;100628.34;;;4.95;100.00
64683;BME280;51107;47.652;19.016;2023-04-09T07:17:29;100626.41;;;4.99;100.00
64683;BME280;51107;47.652;19.016;2023-04-09T07:19:57;100634.31;;;4.96;100.00
64683;BME280;51107;47.652;19.016;2023-04-09T07:22:27;100634.97;;;4.99;100.00
64683;BME280;51107;47.652;19.016;2023-04-09T07:24:55;100639.94;;;5.02;100.00
64683;BME280;51107;47.652;19.016;2023-04-09T07:27:25;100635.59;;;5.17;100.00
64683;BME280;51107;47.652;19.016;2023-04-09T07:29:58;100637.97;;;5.20;100.00
64683;BME280;51107;47.652;19.016;2023-04-09T07:32:26;100644.53;;;5.26;100.00
64683;BME280;51107;47.652;19.016;2023-04-09T07:34:56;100642.69;;;5.28;100.00
64683;BME280;51107;47.652;19.016;2023-04-09T07:37:26;100636.25;;;5.21;99.85
64683;BME280;51107;47.652;19.016;2023-04-09T07:39:54;100639.81;;;5.33;100.00
64683;BME280;51107;47.652;19.016;2023-04-09T07:42:24;100637.88;;;5.36;100.00
64683;BME280;51107;47.652;19.016;2023-04-09T07:44:52;100646.19;;;5.27;100.00
64683;BME280;51107;47.652;19.016;2023-04-09T07:47:22;100644.78;;;5.36;100.00
64683;BME280;51107;47.652;19.016;2023-04-09T07:49:50;100637.66;;;5.39;100.00
64683;BME280;51107;47.652;19.016;2023-04-09T07:52:19;100649.09;;;5.50;100.00
64683;BME280;51107;47.652;19.016;2023-04-09T07:54:47;100646.13;;;5.56;100.00
64683;BME280;51107;47.652;19.016;2023-04-09T07:57:15;100640.84;;;5.57;100.00
64683;BME280;51107;47.652;19.016;2023-04-09T07:59:44;100636.34;;;5.61;100.00
64683;BME280;51107;47.652;19.016;2023-04-09T08:02:13;100649.50;;;5.71;100.00
64683;BME280;51107;47.652;19.016;2023-04-09T08:04:43;100646.16;;;5.69;100.00
64683;BME280;51107;47.652;19.016;2023-04-09T08:07:11;100635.44;;;5.75;100.00
64683;BME280;51107;47.652;19.016;2023-04-09T08:09:39;100647.22;;;5.66;98.81
64683;BME280;51107;47.652;19.016;2023-04-09T08:12:09;100652.66;;;5.61;100.00
64683;BME280;51107;47.652;19.016;2023-04-09T08:14:41;100644.56;;;5.81;100.00
64683;BME280;51107;47.652;19.016;2023-04-09T08:17:11;100648.94;;;5.80;99.34
64683;BME280;51107;47.652;19.016;2023-04-09T08:19:40;100657.19;;;5.85;100.00
64683;BME280;51107;47.652;19.016;2023-04-09T08:22:09;100654.00;;;5.82;98.89
64683;BME280;51107;47.652;19.016;2023-04-09T08:24:37;100650.41;;;5.97;100.00
64683;BME280;51107;47.652;19.016;2023-04-09T08:27:06;100652.81;;;6.00;98.28
64683;BME280;51107;47.652;19.016;2023-04-09T08:29:35;100656.12;;;5.75;95.60
64683;BME280;51107;47.652;19.016;2023-04-09T08:32:04;100654.91;;;5.81;97.85
64683;BME280;51107;47.652;19.016;2023-04-09T08:34:32;100664.19;;;5.70;93.76
64683;BME280;51107;47.652;19.016;2023-04-09T08:37:00;100660.31;;;5.90;97.31
64683;BME280;51107;47.652;19.016;2023-04-09T08:39:29;100666.84;;;5.96;96.75
64683;BME280;51107;47.652;19.016;2023-04-09T08:41:58;100675.09;;;6.16;97.61
64683;BME280;51107;47.652;19.016;2023-04-09T08:44:30;100663.97;;;6.28;98.06
64683;BME280;51107;47.652;19.016;2023-04-09T08:46:58;100674.34;;;6.41;96.46
64683;BME280;51107;47.652;19.016;2023-04-09T08:49:27;100673.56;;;6.13;95.40
64683;BME280;51107;47.652;19.016;2023-04-09T08:51:56;100680.87;;;6.34;94.29
64683;BME280;51107;47.652;19.016;2023-04-09T08:54:24;100683.69;;;6.43;93.72
64683;BME280;51107;47.652;19.016;2023-04-09T08:56:53;100675.19;;;6.67;96.54
64683;BME280;51107;47.652;19.016;2023-04-09T08:59:22;100686.59;;;6.77;94.08
64683;BME280;51107;47.652;19.016;2023-04-09T09:02:06;100684.53;;;6.83;93.67
64683;BME280;51107;47.652;19.016;2023-04-09T09:04:46;100690.94;;;6.90;91.29
64683;BME280;51107;47.652;19.016;2023-04-09T09:07:16;100682.44;;;7.13;92.92
64683;BME280;51107;47.652;19.016;2023-04-09T09:09:52;100691.94;;;7.26;90.02
64683;BME280;51107;47.652;19.016;2023-04-09T09:12:35;100693.94;;;7.22;86.96
64683;BME280;51107;47.652;19.016;2023-04-09T09:15:05;100693.47;;;7.41;88.45
64683;BME280;51107;47.652;19.016;2023-04-09T09:17:53;100699.31;;;7.69;89.22
64683;BME280;51107;47.652;19.016;2023-04-09T09:20:23;100692.50;;;7.79;85.93
64683;BME280;51107;47.652;19.016;2023-04-09T09:22:53;100698.06;;;7.99;85.38
64683;BME280;51107;47.652;19.016;2023-04-09T09:25:23;100698.16;;;7.73;83.31
64683;BME280;51107;47.652;19.016;2023-04-09T09:27:53;100691.91;;;8.00;83.52
64683;BME280;51107;47.652;19.016;2023-04-09T09:30:24;100698.13;;;8.22;85.62
64683;BME280;51107;47.652;19.016;2023-04-09T09:33:03;100689.09;;;8.03;82.55
64683;BME280;51107;47.652;19.016;2023-04-09T09:35:51;100701.63;;;7.61;82.04
64683;BME280;51107;47.652;19.016;2023-04-09T09:38:21;100702.28;;;7.76;85.33
64683;BME280;51107;47.652;19.016;2023-04-09T09:40:50;100695.69;;;7.22;80.31
64683;BME280;51107;47.652;19.016;2023-04-09T09:43:19;100694.06;;;7.82;86.08
64683;BME280;51107;47.652;19.016;2023-04-09T09:45:48;100690.34;;;7.97;82.64
64683;BME280;51107;47.652;19.016;2023-04-09T09:48:17;100693.34;;;8.04;82.84
64683;BME280;51107;47.652;19.016;2023-04-09T09:50:47;100685.41;;;8.30;82.85
64683;BME280;51107;47.652;19.016;2023-04-09T09:53:18;100685.56;;;8.40;84.35
64683;BME280;51107;47.652;19.016;2023-04-09T09:55:52;100680.41;;;8.51;84.00
64683;BME280;51107;47.652;19.016;2023-04-09T09:58:31;100686.09;;;8.45;81.96
64683;BME280;51107;47.652;19.016;2023-04-09T10:01:00;100675.97;;;8.53;81.02
64683;BME280;51107;47.652;19.016;2023-04-09T10:03:31;100675.03;;;8.54;79.45
64683;BME280;51107;47.652;19.016;2023-04-09T10:06:02;100681.94;;;8.18;80.32
64683;BME280;51107;47.652;19.016;2023-04-09T10:08:32;100682.56;;;8.46;79.88
64683;BME280;51107;47.652;19.016;2023-04-09T10:11:04;100683.56;;;8.43;78.95
64683;BME280;51107;47.652;19.016;2023-04-09T10:13:38;100677.87;;;8.27;81.41
64683;BME280;51107;47.652;19.016;2023-04-09T10:16:07;100687.75;;;8.46;79.46
64683;BME280;51107;47.652;19.016;2023-04-09T10:18:37;100684.69;;;8.52;76.63
64683;BME280;51107;47.652;19.016;2023-04-09T10:21:16;100670.91;;;8.63;84.08
64683;BME280;51107;47.652;19.016;2023-04-09T10:23:48;100677.63;;;8.77;80.88
64683;BME280;51107;47.652;19.016;2023-04-09T10:26:18;100674.91;;;8.56;79.54
64683;BME280;51107;47.652;19.016;2023-04-09T10:29:10;100679.72;;;8.49;80.13
64683;BME280;51107;47.652;19.016;2023-04-09T10:32:02;100676.97;;;8.39;78.65
64683;BME280;51107;47.652;19.016;2023-04-09T10:34:34;100680.53;;;8.49;78.83
64683;BME280;51107;47.652;19.016;2023-04-09T10:37:06;100678.19;;;8.46;78.15
64683;BME280;51107;47.652;19.016;2023-04-09T10:39:43;100676.03;;;8.40;79.88
64683;BME280;51107;47.652;19.016;2023-04-09T10:42:13;100676.66;;;8.55;75.91
64683;BME280;51107;47.652;19.016;2023-04-09T10:44:43;100669.03;;;8.29;78.88
64683;BME280;51107;47.652;19.016;2023-04-09T10:47:11;100676.78;;;8.54;79.55
64683;BME280;51107;47.652;19.016;2023-04-09T10:50:34;100675.91;;;8.06;76.82
64683;BME280;51107;47.652;19.016;2023-04-09T10:53:06;100670.25;;;8.12;77.38
64683;BME280;51107;47.652;19.016;2023-04-09T10:55:38;100678.09;;;8.24;78.36
64683;BME280;51107;47.652;19.016;2023-04-09T10:58:10;100668.28;;;7.92;78.50
64683;BME280;51107;47.652;19.016;2023-04-09T11:00:45;100679.94;;;8.10;76.06
64683;BME280;51107;47.652;19.016;2023-04-09T11:03:27;100692.47;;;7.92;74.12
64683;BME280;51107;47.652;19.016;2023-04-09T11:06:00;100677.75;;;8.04;77.97
64683;BME280;51107;47.652;19.016;2023-04-09T11:08:32;100680.16;;;8.07;77.03
64683;BME280;51107;47.652;19.016;2023-04-09T11:11:02;100681.72;;;7.86;77.35
64683;BME280;51107;47.652;19.016;2023-04-09T11:13:31;100685.28;;;7.96;80.17
64683;BME280;51107;47.652;19.016;2023-04-09T11:15:59;100673.66;;;7.77;78.02
64683;BME280;51107;47.652;19.016;2023-04-09T11:18:31;100680.87;;;7.61;78.97
64683;BME280;51107;47.652;19.016;2023-04-09T11:21:02;100670.09;;;7.54;78.57
64683;BME280;51107;47.652;19.016;2023-04-09T11:23:32;100680.66;;;7.64;78.70
64683;BME280;51107;47.652;19.016;2023-04-09T11:26:01;100673.66;;;7.77;81.49
64683;BME280;51107;47.652;19.016;2023-04-09T11:28:29;100670.66;;;7.71;80.40
64683;BME280;51107;47.652;19.016;2023-04-09T11:30:58;100670.87;;;7.92;78.33
64683;BME280;51107;47.652;19.016;2023-04-09T11:33:31;100668.00;;;8.08;80.74
64683;BME280;51107;47.652;19.016;2023-04-09T11:36:03;100667.63;;;8.37;82.11
64683;BME280;51107;47.652;19.016;2023-04-09T11:38:33;100671.56;;;8.54;79.03
64683;BME280;51107;47.652;19.016;2023-04-09T11:41:04;100676.31;;;8.48;79.20
64683;BME280;51107;47.652;19.016;2023-04-09T11:43:35;100666.38;;;8.54;77.27
64683;BME280;51107;47.652;19.016;2023-04-09T11:46:04;100668.53;;;8.48;76.71
64683;BME280;51107;47.652;19.016;2023-04-09T11:48:33;100659.28;;;8.44;77.20
64683;BME280;51107;47.652;19.016;2023-04-09T11:51:02;100668.78;;;8.79;76.28
64683;BME280;51107;47.652;19.016;2023-04-09T11:53:31;100667.37;;;8.98;76.21
64683;BME280;51107;47.652;19.016;2023-04-09T11:56:00;100654.37;;;9.09;74.11
64683;BME280;51107;47.652;19.016;2023-04-09T11:58:28;100664.28;;;9.15;72.37
64683;BME280;51107;47.652;19.016;2023-04-09T12:00:59;100653.34;;;9.12;72.96
64683;BME280;51107;47.652;19.016;2023-04-09T12:03:30;100662.41;;;9.17;73.75
64683;BME280;51107;47.652;19.016;2023-04-09T12:06:01;100653.06;;;9.26;71.04
64683;BME280;51107;47.652;19.016;2023-04-09T12:08:33;100656.25;;;9.30;72.65
64683;BME280;51107;47.652;19.016;2023-04-09T12:11:13;100654.09;;;9.35;73.87
64683;BME280;51107;47.652;19.016;2023-04-09T12:13:44;100657.91;;;9.42;73.57
64683;BME280;51107;47.652;19.016;2023-04-09T12:16:13;100655.03;;;9.45;72.96
64683;BME280;51107;47.652;19.016;2023-04-09T12:18:42;100659.50;;;9.66;73.06
64683;BME280;51107;47.652;19.016;2023-04-09T12:21:11;100656.97;;;9.32;68.51
64683;BME280;51107;47.652;19.016;2023-04-09T12:23:39;100657.31;;;9.27;71.30
64683;BME280;51107;47.652;19.016;2023-04-09T12:26:08;100648.00;;;9.25;71.84
64683;BME280;51107;47.652;19.016;2023-04-09T12:28:37;100648.00;;;9.13;72.24
64683;BME280;51107;47.652;19.016;2023-04-09T12:31:08;100650.59;;;9.13;69.00
64683;BME280;51107;47.652;19.016;2023-04-09T12:33:37;100648.47;;;9.07;68.84
64683;BME280;51107;47.652;19.016;2023-04-09T12:36:07;100641.63;;;9.06;69.62
64683;BME280;51107;47.652;19.016;2023-04-09T12:38:35;100638.28;;;9.38;71.56
64683;BME280;51107;47.652;19.016;2023-04-09T12:41:04;100645.44;;;9.57;71.86
64683;BME280;51107;47.652;19.016;2023-04-09T12:43:32;100640.53;;;9.75;72.70
64683;BME280;51107;47.652;19.016;2023-04-09T12:46:00;100630.34;;;9.83;69.76
64683;BME280;51107;47.652;19.016;2023-04-09T12:48:29;100637.78;;;9.88;73.76
64683;BME280;51107;47.652;19.016;2023-04-09T12:50:57;100638.78;;;9.97;71.34
64683;BME280;51107;47.652;19.016;2023-04-09T12:53:26;100632.94;;;9.83;68.29
64683;BME280;51107;47.652;19.016;2023-04-09T12:55:54;100632.12;;;10.04;68.34
64683;BME280;51107;47.652;19.016;2023-04-09T12:58:23;100628.56;;;10.05;67.96
64683;BME280;51107;47.652;19.016;2023-04-09T13:00:51;100634.91;;;9.91;68.60
64683;BME280;51107;47.652;19.016;2023-04-09T13:03:21;100631.91;;;9.96;69.88
64683;BME280;51107;47.652;19.016;2023-04-09T13:05:50;100625.00;;;9.52;64.30